Terminal Aerodrome Forecast
Issued by NWS

Home | Current Version | Previous Version | Text Only | Print | Product List | Glossary On
Versions: 1 2 3 4 5 6 7 8 9 10 11 12
000
FTUS45 KTWC 051120
TAFOLS
TAF
KOLS 051120Z 0512/0612 VRB04KT P6SM SCT250
     FM051500 17016G26KT P6SM BKN250
     FM052000 20023G35KT P6SM FEW100 BKN250
     FM060300 20014G22KT P6SM SCT250
     FM060800 18011KT P6SM FEW100=

USA.gov is the U.S. government's official web portal to all federal, state and local government web resources and services.